createdAt,value
2016-12-25T00:00:12.261Z,17.75
2016-12-25T00:01:13.376Z,17.27
2016-12-25T00:02:13.914Z,17.24
2016-12-25T00:03:14.081Z,17.21
2016-12-25T00:04:13.517Z,17.21
2016-12-25T00:05:13.892Z,17.20
2016-12-25T00:06:15.837Z,17.19
2016-12-25T00:07:12.876Z,17.23
2016-12-25T00:08:13.887Z,17.72
2016-12-25T00:09:12.312Z,17.79
2016-12-25T00:10:13.555Z,17.27
2016-12-25T00:11:12.864Z,17.23
2016-12-25T00:12:13.054Z,17.21
2016-12-25T00:13:13.556Z,17.28
2016-12-25T00:14:13.260Z,17.72
2016-12-25T00:15:13.719Z,17.78
2016-12-25T00:16:13.306Z,17.81
2016-12-25T00:17:12.862Z,17.81
2016-12-25T00:18:14.910Z,17.81
2016-12-25T00:19:13.203Z,17.83
2016-12-25T00:20:15.336Z,17.45
2016-12-25T00:21:16.266Z,17.30
2016-12-25T00:22:15.276Z,17.25
2016-12-25T00:23:14.173Z,17.22
2016-12-25T00:24:11.472Z,17.20
2016-12-25T00:25:13.483Z,17.21
2016-12-25T00:26:13.190Z,17.73
2016-12-25T00:27:12.905Z,17.26
2016-12-25T00:28:12.963Z,17.22
2016-12-25T00:29:12.903Z,17.21
2016-12-25T00:30:10.558Z,17.20
2016-12-25T00:31:13.867Z,17.20
2016-12-25T00:32:13.484Z,17.20
2016-12-25T00:33:12.915Z,17.19
2016-12-25T00:34:12.492Z,17.20
2016-12-25T00:35:13.109Z,17.20
2016-12-25T00:36:13.298Z,17.20
2016-12-25T00:37:13.744Z,17.20
2016-12-25T00:38:13.115Z,17.19
2016-12-25T00:39:13.118Z,17.19
2016-12-25T00:40:15.410Z,17.19
2016-12-25T00:41:12.536Z,17.23
2016-12-25T00:42:13.483Z,17.72
2016-12-25T00:43:13.072Z,17.77
2016-12-25T00:44:12.533Z,17.81
2016-12-25T00:45:13.970Z,17.82
2016-12-25T00:46:13.033Z,17.30
2016-12-25T00:47:12.481Z,17.25
2016-12-25T00:48:13.708Z,17.23
2016-12-25T00:49:12.459Z,17.22
2016-12-25T00:50:12.609Z,17.21
2016-12-25T00:51:14.353Z,17.21
2016-12-25T00:52:12.758Z,17.20
2016-12-25T00:53:12.363Z,17.22
2016-12-25T00:54:12.784Z,17.20
2016-12-25T00:55:10.104Z,17.19
2016-12-25T00:56:12.768Z,17.20
2016-12-25T00:57:13.474Z,17.20
2016-12-25T00:58:12.861Z,17.20
2016-12-25T00:59:12.894Z,17.20
2016-12-25T01:00:13.776Z,17.20
2016-12-25T01:01:13.048Z,17.20
2016-12-25T01:02:13.626Z,17.20
2016-12-25T01:03:13.074Z,17.21
2016-12-25T01:04:12.558Z,17.20
2016-12-25T01:05:12.902Z,17.21
2016-12-25T01:06:13.470Z,17.20
2016-12-25T01:07:13.573Z,17.20
2016-12-25T01:08:13.186Z,17.21
2016-12-25T01:09:13.646Z,17.21
2016-12-25T01:10:12.825Z,17.20
2016-12-25T01:11:12.855Z,17.21
2016-12-25T01:12:12.776Z,17.25
2016-12-25T01:13:13.659Z,17.75
2016-12-25T01:14:16.758Z,17.79
2016-12-25T01:15:12.511Z,17.83
2016-12-25T01:16:15.403Z,17.84
2016-12-25T01:17:14.208Z,17.85
2016-12-25T01:18:15.178Z,17.85
2016-12-25T01:19:14.306Z,17.87
2016-12-25T01:20:14.748Z,17.87
2016-12-25T01:21:21.362Z,17.87
2016-12-25T01:22:13.440Z,17.49
2016-12-25T01:23:11.996Z,17.33
2016-12-25T01:24:22.015Z,17.82
2016-12-25T01:25:13.024Z,17.85
2016-12-25T01:26:17.890Z,17.87
2016-12-25T01:27:13.441Z,17.87
2016-12-25T01:28:13.417Z,17.85
2016-12-25T01:29:13.541Z,17.87
2016-12-25T01:30:20.984Z,17.85
2016-12-25T01:31:14.164Z,17.88
2016-12-25T01:32:14.460Z,17.87
2016-12-25T01:33:11.757Z,17.35
2016-12-25T01:34:15.365Z,17.29
2016-12-25T01:35:15.056Z,17.43
2016-12-25T01:36:15.240Z,17.30
2016-12-25T01:37:12.333Z,17.26
2016-12-25T01:38:13.233Z,17.25
2016-12-25T01:39:13.919Z,17.25
2016-12-25T01:40:12.738Z,17.23
2016-12-25T01:41:14.898Z,17.24
2016-12-25T01:42:12.587Z,17.23
2016-12-25T01:43:12.620Z,17.29
2016-12-25T01:44:13.413Z,17.21
2016-12-25T01:45:14.024Z,17.23
2016-12-25T01:46:13.766Z,17.22
2016-12-25T01:47:15.012Z,17.29
2016-12-25T01:48:12.840Z,17.23
2016-12-25T01:49:13.829Z,17.23
2016-12-25T01:50:14.649Z,17.23
2016-12-25T01:51:14.011Z,17.23
2016-12-25T01:52:13.787Z,17.25
2016-12-25T01:53:15.070Z,17.22
2016-12-25T01:54:13.742Z,17.23
2016-12-25T01:55:14.576Z,17.23
2016-12-25T01:56:13.953Z,17.22
2016-12-25T01:57:12.952Z,17.23
2016-12-25T01:58:14.773Z,17.23
2016-12-25T01:59:13.255Z,17.23
2016-12-25T02:00:14.564Z,17.22
2016-12-25T02:01:14.500Z,17.22
2016-12-25T02:02:12.809Z,17.23
2016-12-25T02:03:13.565Z,17.23
2016-12-25T02:04:14.478Z,17.23
2016-12-25T02:05:13.694Z,17.23
2016-12-25T02:06:14.518Z,17.22
2016-12-25T02:07:13.189Z,17.23
2016-12-25T02:08:15.203Z,17.23
2016-12-25T02:09:14.446Z,17.24
2016-12-25T02:10:11.841Z,17.23
2016-12-25T02:11:14.364Z,17.77
2016-12-25T02:12:15.469Z,17.82
2016-12-25T02:13:15.591Z,17.85
2016-12-25T02:14:13.763Z,17.86
2016-12-25T02:15:12.744Z,17.34
2016-12-25T02:16:15.012Z,17.31
2016-12-25T02:17:13.270Z,17.27
2016-12-25T02:18:14.534Z,17.27
2016-12-25T02:19:14.416Z,17.25
2016-12-25T02:20:12.970Z,17.25
2016-12-25T02:21:14.180Z,17.31
2016-12-25T02:22:14.116Z,17.24
2016-12-25T02:23:12.377Z,17.24
2016-12-25T02:24:12.888Z,17.24
2016-12-25T02:25:14.452Z,17.28
2016-12-25T02:26:11.871Z,17.23
2016-12-25T02:27:11.882Z,17.75
2016-12-25T02:28:13.495Z,17.45
2016-12-25T02:29:13.196Z,17.31
2016-12-25T02:30:13.057Z,17.27
2016-12-25T02:31:13.074Z,17.26
2016-12-25T02:32:15.467Z,17.31
2016-12-25T02:33:13.671Z,17.25
2016-12-25T02:34:14.438Z,17.25
2016-12-25T02:35:15.200Z,17.25
2016-12-25T02:36:14.180Z,17.24
2016-12-25T02:37:13.105Z,17.25
2016-12-25T02:38:15.271Z,17.24
2016-12-25T02:39:13.099Z,17.78
2016-12-25T02:40:12.446Z,17.83
2016-12-25T02:41:15.246Z,17.86
2016-12-25T02:42:23.298Z,17.52
2016-12-25T02:43:13.837Z,17.39
2016-12-25T02:44:14.133Z,17.27
2016-12-25T02:45:28.294Z,17.28
2016-12-25T02:46:19.694Z,17.27
2016-12-25T02:47:14.861Z,17.28
2016-12-25T02:48:14.856Z,17.78
2016-12-25T02:49:13.348Z,17.84
2016-12-25T02:50:14.010Z,17.88
2016-12-25T02:51:15.026Z,17.88
2016-12-25T02:52:14.748Z,17.91
2016-12-25T02:53:12.876Z,17.53
2016-12-25T02:54:14.092Z,17.36
2016-12-25T02:55:13.227Z,17.31
2016-12-25T02:56:13.087Z,17.29
2016-12-25T02:57:13.261Z,17.28
2016-12-25T02:58:13.168Z,17.27
2016-12-25T02:59:12.953Z,17.26
2016-12-25T03:00:13.124Z,17.26
2016-12-25T03:01:11.546Z,17.24
2016-12-25T03:02:12.016Z,17.25
2016-12-25T03:03:14.503Z,17.26
2016-12-25T03:04:12.786Z,17.25
2016-12-25T03:05:12.716Z,17.24
2016-12-25T03:06:13.492Z,17.30
2016-12-25T03:07:13.999Z,17.23
2016-12-25T03:08:12.467Z,17.23
2016-12-25T03:09:11.954Z,17.22
2016-12-25T03:10:14.031Z,17.22
2016-12-25T03:11:13.987Z,17.22
2016-12-25T03:12:13.334Z,17.22
2016-12-25T03:13:13.301Z,17.21
2016-12-25T03:14:13.386Z,17.24
2016-12-25T03:15:13.143Z,17.21
2016-12-25T03:16:13.584Z,17.21
2016-12-25T03:17:12.373Z,17.20
2016-12-25T03:18:12.764Z,17.20
2016-12-25T03:19:11.253Z,17.19
2016-12-25T03:20:19.652Z,17.74
2016-12-25T03:21:12.383Z,17.26
2016-12-25T03:22:13.697Z,17.22
2016-12-25T03:23:12.595Z,17.20
2016-12-25T03:24:12.409Z,17.20
2016-12-25T03:25:13.794Z,17.20
2016-12-25T03:26:12.887Z,17.28
2016-12-25T03:27:13.703Z,17.20
2016-12-25T03:28:10.698Z,17.19
2016-12-25T03:29:13.140Z,17.20
2016-12-25T03:30:12.904Z,17.19
2016-12-25T03:31:13.052Z,17.20
2016-12-25T03:32:12.912Z,17.19
2016-12-25T03:33:12.331Z,17.19
2016-12-25T03:34:13.502Z,17.20
2016-12-25T03:35:13.432Z,17.19
2016-12-25T03:36:13.847Z,17.19
2016-12-25T03:37:12.369Z,17.19
2016-12-25T03:38:13.606Z,17.19
2016-12-25T03:39:12.964Z,17.19
2016-12-25T03:40:14.609Z,17.19
2016-12-25T03:41:12.507Z,17.19
2016-12-25T03:42:12.071Z,17.19
2016-12-25T03:43:16.127Z,17.20
2016-12-25T03:44:13.148Z,17.20
2016-12-25T03:45:11.572Z,17.19
2016-12-25T03:46:12.615Z,17.20
2016-12-25T03:47:13.246Z,17.20
2016-12-25T03:48:13.265Z,17.20
2016-12-25T03:49:13.917Z,17.19
2016-12-25T03:50:15.077Z,17.19
2016-12-25T03:51:13.514Z,17.21
2016-12-25T03:52:12.997Z,17.20
2016-12-25T03:53:13.667Z,17.19
2016-12-25T03:54:12.089Z,17.20
2016-12-25T03:55:10.621Z,17.19
2016-12-25T03:56:13.214Z,17.19
2016-12-25T03:57:13.355Z,17.19
2016-12-25T03:58:13.269Z,17.19
2016-12-25T03:59:20.933Z,17.20
2016-12-25T04:00:13.631Z,17.19
2016-12-25T04:01:15.556Z,17.19
2016-12-25T04:02:13.244Z,17.19
2016-12-25T04:03:10.767Z,17.18
2016-12-25T04:04:14.007Z,17.19
2016-12-25T04:05:22.251Z,17.19
2016-12-25T04:06:13.347Z,17.19
2016-12-25T04:07:12.658Z,17.20
2016-12-25T04:08:12.658Z,17.19
2016-12-25T04:09:11.302Z,17.19
2016-12-25T04:10:13.277Z,17.20
2016-12-25T04:11:13.344Z,17.20
2016-12-25T04:12:11.053Z,17.18
2016-12-25T04:13:12.977Z,17.19
2016-12-25T04:14:14.592Z,17.19
2016-12-25T04:15:14.572Z,17.19
2016-12-25T04:16:12.066Z,17.19
2016-12-25T04:17:12.684Z,17.18
2016-12-25T04:18:14.649Z,17.18
2016-12-25T04:19:12.876Z,17.16
2016-12-25T04:20:13.495Z,17.20
2016-12-25T04:21:14.527Z,17.18
2016-12-25T04:22:14.211Z,17.19
2016-12-25T04:23:13.471Z,17.19
2016-12-25T04:24:13.706Z,17.19
2016-12-25T04:25:09.964Z,17.19
2016-12-25T04:26:14.166Z,17.19
2016-12-25T04:27:12.958Z,17.19
2016-12-25T04:28:13.707Z,17.22
2016-12-25T04:29:12.194Z,17.72
2016-12-25T04:30:11.734Z,17.24
2016-12-25T04:31:12.164Z,17.75
2016-12-25T04:32:12.921Z,17.44
2016-12-25T04:33:12.880Z,17.27
2016-12-25T04:34:12.298Z,17.23
2016-12-25T04:35:13.343Z,17.22
2016-12-25T04:36:11.019Z,17.20
2016-12-25T04:37:13.803Z,17.20
2016-12-25T04:38:13.686Z,17.19
2016-12-25T04:39:12.516Z,17.20
2016-12-25T04:40:13.401Z,17.19
2016-12-25T04:41:14.419Z,17.19
2016-12-25T04:42:13.564Z,17.19
2016-12-25T04:43:14.314Z,17.18
2016-12-25T04:44:12.756Z,17.18
2016-12-25T04:45:12.727Z,17.18
2016-12-25T04:46:12.468Z,17.19
2016-12-25T04:47:12.486Z,17.19
2016-12-25T04:48:15.263Z,17.19
2016-12-25T04:49:12.958Z,17.19
2016-12-25T04:50:13.765Z,17.18
2016-12-25T04:51:12.245Z,17.18
2016-12-25T04:52:11.155Z,17.18
2016-12-25T04:53:11.451Z,17.18
2016-12-25T04:54:14.240Z,17.18
2016-12-25T04:55:13.189Z,17.19
2016-12-25T04:56:13.124Z,17.25
2016-12-25T04:57:13.236Z,17.19
2016-12-25T04:58:13.347Z,17.19
2016-12-25T04:59:11.697Z,17.19
2016-12-25T05:00:13.516Z,17.59
2016-12-25T05:01:13.523Z,17.78
2016-12-25T05:02:11.977Z,17.79
2016-12-25T05:03:13.601Z,17.82
2016-12-25T05:04:13.047Z,17.82
2016-12-25T05:05:13.829Z,17.83
2016-12-25T05:06:14.444Z,17.30
2016-12-25T05:07:13.439Z,17.27
2016-12-25T05:08:11.805Z,17.76
2016-12-25T05:09:12.865Z,17.79
2016-12-25T05:10:11.185Z,17.83
2016-12-25T05:11:15.227Z,17.83
2016-12-25T05:12:13.512Z,17.84
2016-12-25T05:13:13.539Z,17.85
2016-12-25T05:14:13.704Z,17.85
2016-12-25T05:15:12.743Z,17.85
2016-12-25T05:16:12.310Z,17.85
2016-12-25T05:17:13.408Z,17.85
2016-12-25T05:18:13.763Z,17.53
2016-12-25T05:19:14.710Z,17.32
2016-12-25T05:20:21.898Z,17.26
2016-12-25T05:21:13.382Z,17.77
2016-12-25T05:22:18.431Z,17.82
2016-12-25T05:23:30.859Z,17.83
2016-12-25T05:24:13.450Z,17.85
2016-12-25T05:25:16.539Z,17.85
2016-12-25T05:26:16.672Z,17.32
2016-12-25T05:27:14.093Z,17.26
2016-12-25T05:28:12.424Z,17.25
2016-12-25T05:29:14.364Z,17.22
2016-12-25T05:30:14.089Z,17.22
2016-12-25T05:31:13.758Z,17.21
2016-12-25T05:32:13.086Z,17.22
2016-12-25T05:33:13.457Z,17.21
2016-12-25T05:34:13.255Z,17.21
2016-12-25T05:35:13.075Z,17.21
2016-12-25T05:36:12.708Z,17.20
2016-12-25T05:37:12.227Z,17.21
2016-12-25T05:38:12.614Z,17.20
2016-12-25T05:39:12.331Z,17.20
2016-12-25T05:40:11.665Z,17.20
2016-12-25T05:41:12.185Z,17.21
2016-12-25T05:42:13.050Z,17.21
2016-12-25T05:43:13.017Z,17.21
2016-12-25T05:44:13.068Z,17.21
2016-12-25T05:45:13.048Z,17.21
2016-12-25T05:46:10.886Z,17.20
2016-12-25T05:47:13.209Z,17.21
2016-12-25T05:48:15.145Z,17.21
2016-12-25T05:49:14.159Z,17.21
2016-12-25T05:50:12.485Z,17.21
2016-12-25T05:51:12.982Z,17.21
2016-12-25T05:52:12.988Z,17.21
2016-12-25T05:53:13.743Z,17.21
2016-12-25T05:54:12.563Z,17.21
2016-12-25T05:55:12.951Z,17.21
2016-12-25T05:56:12.332Z,17.22
2016-12-25T05:57:12.939Z,17.21
2016-12-25T05:58:12.741Z,17.22
2016-12-25T05:59:12.040Z,17.22
2016-12-25T06:00:15.059Z,17.22
2016-12-25T06:01:12.534Z,17.21
2016-12-25T06:02:13.374Z,17.23
2016-12-25T06:03:12.928Z,17.38
2016-12-25T06:04:13.126Z,17.27
2016-12-25T06:05:13.172Z,17.24
2016-12-25T06:06:12.578Z,17.23
2016-12-25T06:07:12.470Z,17.22
2016-12-25T06:08:11.802Z,17.22
2016-12-25T06:09:13.147Z,17.75
2016-12-25T06:10:12.555Z,17.81
2016-12-25T06:11:14.719Z,17.85
2016-12-25T06:12:12.452Z,17.51
2016-12-25T06:13:13.384Z,17.32
2016-12-25T06:14:11.817Z,17.26
2016-12-25T06:15:14.600Z,17.78
2016-12-25T06:16:12.340Z,17.83
2016-12-25T06:17:13.664Z,17.83
2016-12-25T06:18:12.485Z,17.86
2016-12-25T06:19:13.375Z,17.87
2016-12-25T06:20:12.701Z,17.86
2016-12-25T06:21:12.177Z,17.50
2016-12-25T06:22:13.050Z,17.37
2016-12-25T06:23:14.054Z,17.81
2016-12-25T06:24:12.597Z,17.48
2016-12-25T06:25:12.609Z,17.32
2016-12-25T06:26:12.060Z,17.26
2016-12-25T06:27:11.010Z,17.25
2016-12-25T06:28:11.642Z,17.24
2016-12-25T06:29:11.982Z,17.76
2016-12-25T06:30:12.362Z,17.82
2016-12-25T06:31:12.662Z,17.85
2016-12-25T06:32:12.331Z,17.86
2016-12-25T06:33:13.182Z,17.86
2016-12-25T06:34:13.127Z,17.87
2016-12-25T06:35:13.928Z,17.87
2016-12-25T06:36:12.413Z,17.34
2016-12-25T06:37:13.233Z,17.28
2016-12-25T06:38:14.425Z,17.30
2016-12-25T06:39:14.036Z,17.24
2016-12-25T06:40:13.242Z,17.24
2016-12-25T06:41:13.328Z,17.23
2016-12-25T06:42:12.912Z,17.23
2016-12-25T06:43:12.370Z,17.23
2016-12-25T06:44:14.343Z,17.23
2016-12-25T06:45:14.476Z,17.23
2016-12-25T06:46:16.782Z,17.20
2016-12-25T06:47:13.137Z,17.22
2016-12-25T06:48:13.020Z,17.21
2016-12-25T06:49:14.492Z,17.76
2016-12-25T06:50:20.300Z,17.81
2016-12-25T06:51:13.376Z,17.50
2016-12-25T06:52:12.873Z,17.33
2016-12-25T06:53:12.554Z,17.26
2016-12-25T06:54:14.389Z,17.26
2016-12-25T06:55:13.008Z,17.25
2016-12-25T06:56:11.599Z,17.23
2016-12-25T06:57:13.720Z,17.77
2016-12-25T06:58:12.368Z,17.73
2016-12-25T06:59:14.162Z,17.31
2016-12-25T07:00:12.650Z,17.27
2016-12-25T07:01:12.156Z,17.26
2016-12-25T07:02:12.512Z,17.26
2016-12-25T07:03:15.492Z,17.24
2016-12-25T07:04:14.091Z,17.24
2016-12-25T07:05:13.001Z,17.24
2016-12-25T07:06:12.497Z,17.23
2016-12-25T07:07:13.293Z,17.22
2016-12-25T07:08:12.811Z,17.22
2016-12-25T07:09:13.535Z,17.22
2016-12-25T07:10:13.576Z,17.23
2016-12-25T07:11:11.990Z,17.22
2016-12-25T07:12:12.339Z,17.23
2016-12-25T07:13:11.072Z,17.22
2016-12-25T07:14:12.331Z,17.22
2016-12-25T07:15:12.752Z,17.23
2016-12-25T07:16:15.520Z,17.23
2016-12-25T07:17:14.040Z,17.23
2016-12-25T07:18:12.772Z,17.23
2016-12-25T07:19:12.240Z,17.23
2016-12-25T07:20:16.053Z,17.23
2016-12-25T07:21:12.892Z,17.22
2016-12-25T07:22:13.973Z,17.23
2016-12-25T07:23:10.740Z,17.22
2016-12-25T07:24:12.968Z,17.23
2016-12-25T07:25:14.879Z,17.23
2016-12-25T07:26:12.359Z,17.23
2016-12-25T07:27:12.831Z,17.23
2016-12-25T07:28:12.571Z,17.23
2016-12-25T07:29:13.330Z,17.22
2016-12-25T07:30:12.823Z,17.23
2016-12-25T07:31:14.559Z,17.23
2016-12-25T07:32:12.439Z,17.24
2016-12-25T07:33:12.780Z,17.24
2016-12-25T07:34:16.822Z,17.23
2016-12-25T07:35:12.282Z,17.24
2016-12-25T07:36:12.993Z,17.24
2016-12-25T07:37:13.092Z,17.23
2016-12-25T07:38:12.940Z,17.76
2016-12-25T07:39:12.480Z,17.82
2016-12-25T07:40:13.928Z,17.86
2016-12-25T07:41:15.847Z,17.87
2016-12-25T07:42:13.640Z,17.88
2016-12-25T07:43:12.826Z,17.88
2016-12-25T07:44:12.760Z,17.89
2016-12-25T07:45:12.719Z,17.89
2016-12-25T07:46:12.787Z,17.53
2016-12-25T07:47:12.263Z,17.35
2016-12-25T07:48:13.871Z,17.30
2016-12-25T07:49:12.497Z,17.28
2016-12-25T07:50:13.240Z,17.27
2016-12-25T07:51:14.320Z,17.26
2016-12-25T07:52:14.332Z,17.26
2016-12-25T07:53:12.300Z,17.25
2016-12-25T07:54:12.789Z,17.25
2016-12-25T07:55:13.131Z,17.24
2016-12-25T07:56:13.346Z,17.24
2016-12-25T07:57:13.415Z,17.32
2016-12-25T07:58:13.608Z,17.77
2016-12-25T07:59:11.962Z,17.50
2016-12-25T08:00:12.422Z,17.32
2016-12-25T08:01:12.743Z,17.28
2016-12-25T08:02:13.540Z,17.26
2016-12-25T08:03:13.269Z,17.25
2016-12-25T08:04:12.706Z,17.25
2016-12-25T08:05:12.508Z,17.25
2016-12-25T08:06:19.285Z,17.25
2016-12-25T08:07:18.238Z,17.25
2016-12-25T08:08:12.508Z,17.24
2016-12-25T08:09:21.976Z,17.25
2016-12-25T08:10:13.179Z,17.24
2016-12-25T08:11:13.498Z,17.24
2016-12-25T08:12:12.679Z,17.33
2016-12-25T08:13:13.023Z,17.77
2016-12-25T08:14:13.587Z,17.30
2016-12-25T08:15:13.820Z,17.27
2016-12-25T08:16:19.481Z,17.26
2016-12-25T08:17:22.599Z,17.26
2016-12-25T08:18:12.776Z,17.26
2016-12-25T08:19:12.697Z,17.25
2016-12-25T08:20:12.525Z,17.25
2016-12-25T08:21:13.044Z,17.25
2016-12-25T08:22:12.550Z,17.25
2016-12-25T08:23:27.912Z,17.25
2016-12-25T08:24:12.857Z,17.24
2016-12-25T08:25:15.712Z,17.25
2016-12-25T08:26:12.552Z,17.25
2016-12-25T08:27:12.196Z,17.25
2016-12-25T08:28:12.634Z,17.25
2016-12-25T08:29:12.303Z,17.25
2016-12-25T08:30:14.006Z,17.25
2016-12-25T08:31:12.960Z,17.24
2016-12-25T08:32:12.438Z,17.25
2016-12-25T08:33:13.587Z,17.25
2016-12-25T08:34:11.975Z,17.25
2016-12-25T08:35:11.131Z,17.25
2016-12-25T08:36:13.034Z,17.78
2016-12-25T08:37:12.927Z,17.84
2016-12-25T08:38:12.414Z,17.87
2016-12-25T08:39:13.289Z,17.88
2016-12-25T08:40:12.613Z,17.90
2016-12-25T08:41:12.289Z,17.90
2016-12-25T08:42:13.466Z,17.58
2016-12-25T08:43:13.556Z,17.38
2016-12-25T08:44:12.785Z,17.32
2016-12-25T08:45:13.736Z,17.29
2016-12-25T08:46:12.415Z,17.28
2016-12-25T08:47:12.833Z,17.28
2016-12-25T08:48:13.005Z,17.27
2016-12-25T08:49:12.416Z,17.27
2016-12-25T08:50:13.018Z,17.27
2016-12-25T08:51:12.446Z,17.27
2016-12-25T08:52:13.276Z,17.27
2016-12-25T08:53:13.418Z,17.33
2016-12-25T08:54:13.385Z,17.30
2016-12-25T08:55:12.632Z,17.80
2016-12-25T08:56:13.385Z,17.33
2016-12-25T08:57:12.767Z,17.32
2016-12-25T08:58:12.754Z,17.31
2016-12-25T08:59:12.807Z,17.31
2016-12-25T09:00:12.882Z,17.31
2016-12-25T09:01:12.577Z,17.87
2016-12-25T09:02:14.302Z,17.92
2016-12-25T09:03:13.213Z,17.94
2016-12-25T09:04:13.001Z,17.95
2016-12-25T09:05:12.727Z,17.97
2016-12-25T09:06:12.585Z,17.98
2016-12-25T09:07:14.388Z,17.99
2016-12-25T09:08:10.524Z,18.00
2016-12-25T09:09:18.664Z,17.99
2016-12-25T09:10:12.589Z,17.64
2016-12-25T09:11:11.279Z,18.00
2016-12-25T09:12:12.659Z,17.47
2016-12-25T09:13:12.615Z,17.42
2016-12-25T09:14:12.638Z,17.38
2016-12-25T09:15:10.727Z,17.36
2016-12-25T09:16:10.825Z,17.34
2016-12-25T09:17:12.433Z,17.88
2016-12-25T09:18:13.243Z,17.92
2016-12-25T09:19:13.188Z,17.59
2016-12-25T09:20:13.402Z,17.41
2016-12-25T09:21:11.792Z,17.36
2016-12-25T09:22:13.468Z,17.33
2016-12-25T09:23:15.731Z,17.32
2016-12-25T09:24:12.539Z,17.31
2016-12-25T09:25:12.630Z,17.33
2016-12-25T09:26:12.044Z,17.85
2016-12-25T09:27:12.316Z,17.90
2016-12-25T09:28:15.268Z,17.92
2016-12-25T09:29:12.697Z,17.93
2016-12-25T09:30:14.424Z,17.95
2016-12-25T09:31:15.916Z,17.87
2016-12-25T09:32:12.506Z,17.83
2016-12-25T09:33:13.200Z,17.16
2016-12-25T09:34:12.787Z,16.76
2016-12-25T09:35:13.561Z,16.42
2016-12-25T09:36:15.284Z,16.18
2016-12-25T09:37:12.633Z,16.00
2016-12-25T09:38:15.342Z,15.81
2016-12-25T09:39:30.844Z,15.57
2016-12-25T09:40:14.254Z,15.50
2016-12-25T09:41:15.330Z,15.72
2016-12-25T09:42:22.549Z,15.96
2016-12-25T09:43:12.619Z,16.21
2016-12-25T09:44:12.198Z,16.37
2016-12-25T09:45:21.079Z,16.53
2016-12-25T09:46:13.344Z,17.15
2016-12-25T09:47:13.181Z,17.29
2016-12-25T09:48:15.013Z,17.40
2016-12-25T09:49:12.601Z,16.95
2016-12-25T09:50:12.782Z,16.94
2016-12-25T09:51:12.724Z,17.50
2016-12-25T09:52:12.777Z,17.58
2016-12-25T09:53:12.568Z,17.64
2016-12-25T09:54:14.173Z,17.32
2016-12-25T09:55:14.131Z,17.17
2016-12-25T09:56:12.487Z,17.15
2016-12-25T09:57:14.395Z,17.14
2016-12-25T09:58:12.854Z,17.15
2016-12-25T09:59:13.659Z,17.15
2016-12-25T10:00:14.146Z,17.17
2016-12-25T10:01:13.246Z,17.19
2016-12-25T10:02:13.034Z,17.20
2016-12-25T10:03:13.165Z,17.25
2016-12-25T10:04:12.526Z,17.22
2016-12-25T10:05:13.317Z,17.23
2016-12-25T10:06:11.974Z,17.24
2016-12-25T10:07:12.216Z,17.25
2016-12-25T10:08:12.549Z,17.26
2016-12-25T10:09:12.862Z,17.27
2016-12-25T10:10:12.800Z,17.28
2016-12-25T10:11:18.215Z,17.28
2016-12-25T10:12:13.163Z,17.29
2016-12-25T10:13:12.788Z,17.29
2016-12-25T10:14:11.961Z,17.30
2016-12-25T10:15:13.389Z,17.38
2016-12-25T10:16:13.247Z,17.31
2016-12-25T10:17:11.877Z,17.30
2016-12-25T10:18:10.984Z,17.86
2016-12-25T10:19:12.914Z,17.92
2016-12-25T10:20:14.733Z,17.94
2016-12-25T10:21:12.238Z,17.97
2016-12-25T10:22:12.658Z,17.98
2016-12-25T10:23:11.233Z,17.45
2016-12-25T10:24:12.536Z,17.40
2016-12-25T10:25:14.324Z,17.37
2016-12-25T10:26:13.441Z,17.37
2016-12-25T10:27:14.166Z,17.36
2016-12-25T10:28:13.712Z,17.35
2016-12-25T10:29:12.268Z,17.35
2016-12-25T10:30:12.649Z,17.35
2016-12-25T10:31:11.034Z,17.35
2016-12-25T10:32:11.840Z,17.34
2016-12-25T10:33:12.224Z,17.89
2016-12-25T10:34:13.359Z,17.59
2016-12-25T10:35:12.948Z,17.43
2016-12-25T10:36:12.456Z,17.39
2016-12-25T10:37:11.604Z,17.37
2016-12-25T10:38:13.338Z,17.91
2016-12-25T10:39:13.196Z,17.43
2016-12-25T10:40:13.013Z,17.39
2016-12-25T10:41:14.222Z,17.38
2016-12-25T10:42:12.648Z,17.36
2016-12-25T10:43:14.340Z,17.36
2016-12-25T10:44:13.519Z,17.36
2016-12-25T10:45:14.915Z,17.36
2016-12-25T10:46:12.347Z,17.36
2016-12-25T10:47:13.327Z,17.40
2016-12-25T10:48:13.088Z,17.35
2016-12-25T10:49:13.221Z,17.36
2016-12-25T10:50:13.096Z,17.35
2016-12-25T10:51:12.988Z,17.35
2016-12-25T10:52:12.584Z,17.35
2016-12-25T10:53:13.365Z,17.34
2016-12-25T10:54:14.148Z,17.34
2016-12-25T10:55:12.544Z,17.34
2016-12-25T10:56:15.335Z,17.34
2016-12-25T10:57:13.520Z,17.35
2016-12-25T10:58:18.390Z,17.34
2016-12-25T10:59:14.144Z,17.34
2016-12-25T11:00:15.069Z,17.34
2016-12-25T11:01:12.651Z,17.33
2016-12-25T11:02:14.901Z,17.34
2016-12-25T11:03:12.751Z,17.34
2016-12-25T11:04:12.700Z,17.34
2016-12-25T11:05:13.297Z,17.33
2016-12-25T11:06:13.657Z,17.36
2016-12-25T11:07:13.775Z,17.87
2016-12-25T11:08:12.825Z,17.58
2016-12-25T11:09:20.606Z,17.40
2016-12-25T11:10:11.033Z,17.36
2016-12-25T11:11:12.582Z,17.35
2016-12-25T11:12:11.045Z,17.34
2016-12-25T11:13:15.080Z,17.89
2016-12-25T11:14:15.891Z,17.93
2016-12-25T11:15:12.793Z,17.95
2016-12-25T11:16:22.326Z,17.96
2016-12-25T11:17:38.245Z,17.96
2016-12-25T11:18:32.451Z,17.97
2016-12-25T11:19:12.219Z,17.44
2016-12-25T11:20:19.288Z,17.39
2016-12-25T11:21:13.244Z,17.42
2016-12-25T11:22:13.213Z,17.33
2016-12-25T11:23:13.217Z,17.90
2016-12-25T11:24:11.929Z,17.93
2016-12-25T11:25:12.120Z,17.42
2016-12-25T11:26:12.972Z,17.38
2016-12-25T11:27:12.693Z,17.37
2016-12-25T11:28:12.017Z,17.36
2016-12-25T11:29:12.515Z,17.36
2016-12-25T11:30:12.640Z,17.33
2016-12-25T11:31:12.618Z,17.55
2016-12-25T11:32:13.332Z,17.40
2016-12-25T11:33:12.998Z,17.38
2016-12-25T11:34:14.276Z,17.37
2016-12-25T11:35:14.130Z,17.37
2016-12-25T11:36:12.660Z,17.36
2016-12-25T11:37:13.291Z,17.37
2016-12-25T11:38:13.462Z,17.36
2016-12-25T11:39:14.416Z,17.37
2016-12-25T11:40:11.970Z,17.36
2016-12-25T11:41:12.337Z,17.36
2016-12-25T11:42:13.358Z,17.37
2016-12-25T11:43:10.800Z,17.37
2016-12-25T11:44:12.595Z,17.38
2016-12-25T11:45:19.695Z,17.37
2016-12-25T11:46:13.213Z,17.37
2016-12-25T11:47:13.843Z,17.37
2016-12-25T11:48:12.491Z,17.38
2016-12-25T11:49:13.388Z,17.38
2016-12-25T11:50:14.264Z,17.38
2016-12-25T11:51:14.096Z,17.38
2016-12-25T11:52:12.400Z,17.39
2016-12-25T11:53:11.715Z,17.39
2016-12-25T11:54:12.834Z,17.39
2016-12-25T11:55:12.714Z,17.39
2016-12-25T11:56:12.047Z,17.40
2016-12-25T11:57:15.724Z,17.39
2016-12-25T11:58:12.160Z,17.40
2016-12-25T11:59:13.030Z,17.40
2016-12-25T12:00:12.357Z,17.40
2016-12-25T12:01:12.721Z,17.40
2016-12-25T12:02:13.369Z,17.40
2016-12-25T12:03:12.734Z,17.40
2016-12-25T12:04:12.177Z,17.40
2016-12-25T12:05:13.089Z,17.40
2016-12-25T12:06:14.849Z,17.39
2016-12-25T12:07:12.317Z,17.41
2016-12-25T12:08:13.832Z,17.41
2016-12-25T12:09:12.233Z,17.41
2016-12-25T12:10:12.735Z,17.41
2016-12-25T12:11:11.166Z,17.39
2016-12-25T12:12:13.135Z,17.93
2016-12-25T12:13:12.618Z,17.47
2016-12-25T12:14:12.482Z,17.44
2016-12-25T12:15:11.888Z,17.42
2016-12-25T12:16:12.451Z,17.42
2016-12-25T12:17:13.294Z,17.41
2016-12-25T12:18:13.064Z,17.41
2016-12-25T12:19:12.828Z,17.40
2016-12-25T12:20:15.485Z,17.40
2016-12-25T12:21:13.014Z,17.40
2016-12-25T12:22:13.866Z,17.40
2016-12-25T12:23:13.592Z,17.40
2016-12-25T12:24:12.145Z,17.40
2016-12-25T12:25:13.896Z,17.40
2016-12-25T12:26:12.921Z,17.40
2016-12-25T12:27:12.451Z,17.40
2016-12-25T12:28:12.889Z,17.40
2016-12-25T12:29:12.529Z,17.40
2016-12-25T12:30:13.536Z,17.42
2016-12-25T12:31:14.190Z,17.93
2016-12-25T12:32:13.195Z,17.98
2016-12-25T12:33:12.705Z,18.02
2016-12-25T12:34:12.418Z,18.03
2016-12-25T12:35:12.817Z,18.03
2016-12-25T12:36:12.768Z,18.05
2016-12-25T12:37:12.660Z,18.04
2016-12-25T12:38:11.053Z,17.51
2016-12-25T12:39:12.794Z,17.99
2016-12-25T12:40:20.428Z,18.03
2016-12-25T12:41:14.887Z,18.04
2016-12-25T12:42:14.237Z,17.51
2016-12-25T12:43:13.657Z,17.47
2016-12-25T12:44:12.930Z,17.44
2016-12-25T12:45:15.419Z,17.43
2016-12-25T12:46:12.945Z,17.42
2016-12-25T12:47:13.784Z,17.42
2016-12-25T12:48:12.322Z,17.41
2016-12-25T12:49:11.632Z,17.40
2016-12-25T12:50:12.632Z,17.41
2016-12-25T12:51:13.121Z,17.41
2016-12-25T12:52:12.465Z,17.40